sensor_id;sensor_type;location;lat;lon;timestamp;pressure;altitude;pressure_sealevel;temperature;humidity
50368;BME280;36281;34.132;-118.018;2023-04-06T00:02:03;100190.13;;;22.48;25.63
50368;BME280;36281;34.132;-118.018;2023-04-06T00:04:34;100187.44;;;22.48;25.46
50368;BME280;36281;34.132;-118.018;2023-04-06T00:07:03;100171.06;;;22.39;25.16
50368;BME280;36281;34.132;-118.018;2023-04-06T00:09:32;100192.06;;;22.42;24.16
50368;BME280;36281;34.132;-118.018;2023-04-06T00:12:01;100192.97;;;22.32;23.67
50368;BME280;36281;34.132;-118.018;2023-04-06T00:14:30;100196.81;;;22.21;23.98
50368;BME280;36281;34.132;-118.018;2023-04-06T00:17:00;100191.50;;;22.11;23.44
50368;BME280;36281;34.132;-118.018;2023-04-06T00:19:29;100189.69;;;21.96;23.48
50368;BME280;36281;34.132;-118.018;2023-04-06T00:21:59;100201.09;;;21.78;23.13
50368;BME280;36281;34.132;-118.018;2023-04-06T00:24:30;100193.88;;;21.68;23.79
50368;BME280;36281;34.132;-118.018;2023-04-06T00:26:59;100200.47;;;21.36;23.99
50368;BME280;36281;34.132;-118.018;2023-04-06T00:29:29;100202.88;;;21.38;24.37
50368;BME280;36281;34.132;-118.018;2023-04-06T00:31:58;100208.28;;;21.28;23.82
50368;BME280;36281;34.132;-118.018;2023-04-06T00:34:28;100213.72;;;21.12;23.33
50368;BME280;36281;34.132;-118.018;2023-04-06T00:36:58;100213.47;;;21.04;23.47
50368;BME280;36281;34.132;-118.018;2023-04-06T00:39:27;100215.91;;;21.00;23.85
50368;BME280;36281;34.132;-118.018;2023-04-06T00:41:56;100221.59;;;20.88;24.06
50368;BME280;36281;34.132;-118.018;2023-04-06T00:44:26;100214.03;;;20.85;24.13
50368;BME280;36281;34.132;-118.018;2023-04-06T00:46:56;100222.13;;;20.80;24.18
50368;BME280;36281;34.132;-118.018;2023-04-06T00:49:25;100218.63;;;20.75;24.72
50368;BME280;36281;34.132;-118.018;2023-04-06T00:51:54;100224.00;;;20.70;25.37
50368;BME280;36281;34.132;-118.018;2023-04-06T00:54:25;100214.59;;;20.62;24.99
50368;BME280;36281;34.132;-118.018;2023-04-06T00:56:54;100209.47;;;20.55;24.46
50368;BME280;36281;34.132;-118.018;2023-04-06T00:59:24;100214.06;;;20.50;24.75
50368;BME280;36281;34.132;-118.018;2023-04-06T01:01:55;100211.56;;;20.38;25.25
50368;BME280;36281;34.132;-118.018;2023-04-06T01:04:24;100221.28;;;20.39;25.08
50368;BME280;36281;34.132;-118.018;2023-04-06T01:06:53;100234.97;;;20.27;24.96
50368;BME280;36281;34.132;-118.018;2023-04-06T01:09:24;100233.34;;;20.16;24.92
50368;BME280;36281;34.132;-118.018;2023-04-06T01:11:54;100232.53;;;20.05;24.73
50368;BME280;36281;34.132;-118.018;2023-04-06T01:14:24;100236.25;;;19.94;25.19
50368;BME280;36281;34.132;-118.018;2023-04-06T01:16:54;100241.56;;;19.79;25.29
50368;BME280;36281;34.132;-118.018;2023-04-06T01:19:24;100240.19;;;19.71;25.40
50368;BME280;36281;34.132;-118.018;2023-04-06T01:21:53;100239.09;;;19.62;25.63
50368;BME280;36281;34.132;-118.018;2023-04-06T01:24:24;100243.88;;;19.55;25.55
50368;BME280;36281;34.132;-118.018;2023-04-06T01:26:53;100244.88;;;19.49;25.79
50368;BME280;36281;34.132;-118.018;2023-04-06T01:29:22;100238.19;;;19.46;26.00
50368;BME280;36281;34.132;-118.018;2023-04-06T01:31:51;100243.53;;;19.41;26.05
50368;BME280;36281;34.132;-118.018;2023-04-06T01:34:20;100250.75;;;19.35;25.96
50368;BME280;36281;34.132;-118.018;2023-04-06T01:36:49;100247.22;;;19.30;26.10
50368;BME280;36281;34.132;-118.018;2023-04-06T01:39:19;100246.94;;;19.26;26.61
50368;BME280;36281;34.132;-118.018;2023-04-06T01:41:49;100243.38;;;19.16;26.54
50368;BME280;36281;34.132;-118.018;2023-04-06T01:44:18;100255.44;;;19.13;26.70
50368;BME280;36281;34.132;-118.018;2023-04-06T01:46:48;100223.38;;;18.96;26.37
50368;BME280;36281;34.132;-118.018;2023-04-06T01:49:17;100255.09;;;19.04;27.12
50368;BME280;36281;34.132;-118.018;2023-04-06T01:51:46;100249.97;;;18.98;26.90
50368;BME280;36281;34.132;-118.018;2023-04-06T01:54:15;100246.16;;;18.94;27.03
50368;BME280;36281;34.132;-118.018;2023-04-06T01:56:44;100253.91;;;18.85;27.67
50368;BME280;36281;34.132;-118.018;2023-04-06T01:59:15;100253.03;;;18.79;27.55
50368;BME280;36281;34.132;-118.018;2023-04-06T02:01:45;100252.44;;;18.72;27.57
50368;BME280;36281;34.132;-118.018;2023-04-06T02:04:14;100249.16;;;18.65;28.14
50368;BME280;36281;34.132;-118.018;2023-04-06T02:06:43;100235.84;;;18.48;28.10
50368;BME280;36281;34.132;-118.018;2023-04-06T02:09:12;100247.91;;;18.46;28.56
50368;BME280;36281;34.132;-118.018;2023-04-06T02:11:42;100246.78;;;18.42;29.06
50368;BME280;36281;34.132;-118.018;2023-04-06T02:14:11;100255.34;;;18.39;29.54
50368;BME280;36281;34.132;-118.018;2023-04-06T02:16:41;100257.69;;;18.30;29.36
50368;BME280;36281;34.132;-118.018;2023-04-06T02:19:10;100258.13;;;18.22;30.52
50368;BME280;36281;34.132;-118.018;2023-04-06T02:21:40;100264.50;;;18.16;30.27
50368;BME280;36281;34.132;-118.018;2023-04-06T02:24:09;100256.91;;;18.07;30.44
50368;BME280;36281;34.132;-118.018;2023-04-06T02:26:38;100256.53;;;17.99;31.15
50368;BME280;36281;34.132;-118.018;2023-04-06T02:29:07;100251.03;;;17.89;31.32
50368;BME280;36281;34.132;-118.018;2023-04-06T02:31:36;100264.66;;;17.82;31.10
50368;BME280;36281;34.132;-118.018;2023-04-06T02:34:07;100255.06;;;17.69;31.53
50368;BME280;36281;34.132;-118.018;2023-04-06T02:36:39;100263.56;;;17.61;32.63
50368;BME280;36281;34.132;-118.018;2023-04-06T02:39:08;100254.47;;;17.45;32.92
50368;BME280;36281;34.132;-118.018;2023-04-06T02:41:38;100259.22;;;17.38;32.84
50368;BME280;36281;34.132;-118.018;2023-04-06T02:44:08;100265.25;;;17.28;33.56
50368;BME280;36281;34.132;-118.018;2023-04-06T02:46:38;100262.09;;;17.15;34.07
50368;BME280;36281;34.132;-118.018;2023-04-06T02:49:08;100233.88;;;16.90;34.14
50368;BME280;36281;34.132;-118.018;2023-04-06T02:51:37;100263.97;;;16.97;34.38
50368;BME280;36281;34.132;-118.018;2023-04-06T02:54:07;100265.09;;;16.85;34.51
50368;BME280;36281;34.132;-118.018;2023-04-06T02:56:36;100264.94;;;16.74;35.05
50368;BME280;36281;34.132;-118.018;2023-04-06T02:59:05;100269.03;;;16.65;35.67
50368;BME280;36281;34.132;-118.018;2023-04-06T03:01:34;100265.63;;;16.53;35.86
50368;BME280;36281;34.132;-118.018;2023-04-06T03:04:05;100263.75;;;16.37;36.21
50368;BME280;36281;34.132;-118.018;2023-04-06T03:06:36;100263.88;;;16.30;36.63
50368;BME280;36281;34.132;-118.018;2023-04-06T03:09:05;100267.88;;;16.16;36.77
50368;BME280;36281;34.132;-118.018;2023-04-06T03:11:35;100265.44;;;16.14;37.57
50368;BME280;36281;34.132;-118.018;2023-04-06T03:14:04;100278.25;;;16.00;37.62
50368;BME280;36281;34.132;-118.018;2023-04-06T03:16:33;100269.84;;;15.92;37.43
50368;BME280;36281;34.132;-118.018;2023-04-06T03:19:02;100279.81;;;15.85;38.12
50368;BME280;36281;34.132;-118.018;2023-04-06T03:21:31;100278.34;;;15.77;38.41
50368;BME280;36281;34.132;-118.018;2023-04-06T03:24:02;100284.72;;;15.76;38.52
50368;BME280;36281;34.132;-118.018;2023-04-06T03:26:31;100280.81;;;15.67;39.44
50368;BME280;36281;34.132;-118.018;2023-04-06T03:29:00;100284.25;;;15.56;39.91
50368;BME280;36281;34.132;-118.018;2023-04-06T03:31:29;100287.28;;;15.47;39.35
50368;BME280;36281;34.132;-118.018;2023-04-06T03:33:58;100284.16;;;15.39;38.54
50368;BME280;36281;34.132;-118.018;2023-04-06T03:36:28;100282.19;;;15.34;38.97
50368;BME280;36281;34.132;-118.018;2023-04-06T03:38:57;100290.31;;;15.28;40.39
50368;BME280;36281;34.132;-118.018;2023-04-06T03:41:28;100295.41;;;15.17;40.22
50368;BME280;36281;34.132;-118.018;2023-04-06T03:43:57;100293.91;;;15.10;40.05
50368;BME280;36281;34.132;-118.018;2023-04-06T03:46:26;100293.78;;;15.05;40.35
50368;BME280;36281;34.132;-118.018;2023-04-06T03:48:55;100282.97;;;14.88;41.23
50368;BME280;36281;34.132;-118.018;2023-04-06T03:51:24;100302.56;;;14.93;41.30
50368;BME280;36281;34.132;-118.018;2023-04-06T03:53:53;100301.66;;;14.88;42.07
50368;BME280;36281;34.132;-118.018;2023-04-06T03:56:23;100304.63;;;14.80;42.44
50368;BME280;36281;34.132;-118.018;2023-04-06T03:58:54;100306.50;;;14.79;42.47
50368;BME280;36281;34.132;-118.018;2023-04-06T04:01:23;100310.88;;;14.73;42.60
50368;BME280;36281;34.132;-118.018;2023-04-06T04:03:53;100302.16;;;14.66;43.44
50368;BME280;36281;34.132;-118.018;2023-04-06T04:06:22;100299.16;;;14.63;43.58
50368;BME280;36281;34.132;-118.018;2023-04-06T04:08:51;100300.63;;;14.59;44.31
50368;BME280;36281;34.132;-118.018;2023-04-06T04:11:20;100299.03;;;14.58;44.39
50368;BME280;36281;34.132;-118.018;2023-04-06T04:13:49;100307.81;;;14.58;44.53
50368;BME280;36281;34.132;-118.018;2023-04-06T04:16:20;100300.94;;;14.51;44.68
50368;BME280;36281;34.132;-118.018;2023-04-06T04:18:49;100297.53;;;14.43;44.98
50368;BME280;36281;34.132;-118.018;2023-04-06T04:21:18;100307.72;;;14.46;45.01
50368;BME280;36281;34.132;-118.018;2023-04-06T04:23:47;100306.22;;;14.39;45.74
50368;BME280;36281;34.132;-118.018;2023-04-06T04:26:16;100286.34;;;14.23;45.54
50368;BME280;36281;34.132;-118.018;2023-04-06T04:28:45;100309.41;;;14.29;45.69
50368;BME280;36281;34.132;-118.018;2023-04-06T04:31:15;100315.03;;;14.21;46.18
50368;BME280;36281;34.132;-118.018;2023-04-06T04:33:48;100313.16;;;14.10;46.24
50368;BME280;36281;34.132;-118.018;2023-04-06T04:36:17;100308.25;;;14.07;46.10
50368;BME280;36281;34.132;-118.018;2023-04-06T04:38:46;100309.53;;;14.04;45.82
50368;BME280;36281;34.132;-118.018;2023-04-06T04:41:15;100310.56;;;14.03;46.85
50368;BME280;36281;34.132;-118.018;2023-04-06T04:43:44;100308.91;;;14.02;46.81
50368;BME280;36281;34.132;-118.018;2023-04-06T04:46:14;100309.53;;;14.04;47.19
50368;BME280;36281;34.132;-118.018;2023-04-06T04:48:43;100309.81;;;13.96;47.17
50368;BME280;36281;34.132;-118.018;2023-04-06T04:51:14;100318.28;;;13.93;47.68
50368;BME280;36281;34.132;-118.018;2023-04-06T04:53:44;100294.44;;;13.80;48.20
50368;BME280;36281;34.132;-118.018;2023-04-06T04:56:13;100318.69;;;13.90;48.00
50368;BME280;36281;34.132;-118.018;2023-04-06T04:58:42;100310.81;;;13.83;48.68
50368;BME280;36281;34.132;-118.018;2023-04-06T05:01:11;100308.00;;;13.78;49.46
50368;BME280;36281;34.132;-118.018;2023-04-06T05:03:40;100312.56;;;13.71;49.32
50368;BME280;36281;34.132;-118.018;2023-04-06T05:06:10;100317.69;;;13.73;48.77
50368;BME280;36281;34.132;-118.018;2023-04-06T05:08:42;100319.16;;;13.68;49.45
50368;BME280;36281;34.132;-118.018;2023-04-06T05:11:11;100320.38;;;13.66;49.22
50368;BME280;36281;34.132;-118.018;2023-04-06T05:13:40;100326.38;;;13.61;49.00
50368;BME280;36281;34.132;-118.018;2023-04-06T05:16:09;100317.03;;;13.52;49.10
50368;BME280;36281;34.132;-118.018;2023-04-06T05:18:39;100321.84;;;13.43;49.89
50368;BME280;36281;34.132;-118.018;2023-04-06T05:21:08;100321.09;;;13.36;49.47
50368;BME280;36281;34.132;-118.018;2023-04-06T05:23:38;100338.47;;;13.39;50.21
50368;BME280;36281;34.132;-118.018;2023-04-06T05:26:09;100337.69;;;13.32;50.35
50368;BME280;36281;34.132;-118.018;2023-04-06T05:28:38;100341.47;;;13.24;50.33
50368;BME280;36281;34.132;-118.018;2023-04-06T05:31:07;100342.88;;;13.20;50.97
50368;BME280;36281;34.132;-118.018;2023-04-06T05:33:37;100338.59;;;13.19;51.69
50368;BME280;36281;34.132;-118.018;2023-04-06T05:36:07;100344.13;;;13.17;52.12
50368;BME280;36281;34.132;-118.018;2023-04-06T05:38:36;100326.69;;;12.97;52.36
50368;BME280;36281;34.132;-118.018;2023-04-06T05:41:05;100355.06;;;13.03;51.65
50368;BME280;36281;34.132;-118.018;2023-04-06T05:43:36;100359.81;;;13.01;51.07
50368;BME280;36281;34.132;-118.018;2023-04-06T05:46:06;100364.72;;;12.97;52.26
50368;BME280;36281;34.132;-118.018;2023-04-06T05:48:35;100361.09;;;12.91;52.58
50368;BME280;36281;34.132;-118.018;2023-04-06T05:51:04;100359.25;;;12.92;52.45
50368;BME280;36281;34.132;-118.018;2023-04-06T05:53:36;100358.25;;;12.86;52.10
50368;BME280;36281;34.132;-118.018;2023-04-06T05:56:06;100356.88;;;12.84;52.37
50368;BME280;36281;34.132;-118.018;2023-04-06T05:58:37;100363.84;;;12.78;52.54
50368;BME280;36281;34.132;-118.018;2023-04-06T06:01:06;100362.19;;;12.77;51.18
50368;BME280;36281;34.132;-118.018;2023-04-06T06:03:35;100364.28;;;12.75;52.58
50368;BME280;36281;34.132;-118.018;2023-04-06T06:06:05;100360.63;;;12.70;51.33
50368;BME280;36281;34.132;-118.018;2023-04-06T06:08:34;100369.00;;;12.66;52.23
50368;BME280;36281;34.132;-118.018;2023-04-06T06:11:03;100366.97;;;12.68;52.16
50368;BME280;36281;34.132;-118.018;2023-04-06T06:13:32;100363.09;;;12.64;52.14
50368;BME280;36281;34.132;-118.018;2023-04-06T06:16:03;100361.25;;;12.65;51.75
50368;BME280;36281;34.132;-118.018;2023-04-06T06:18:33;100369.44;;;12.63;51.24
50368;BME280;36281;34.132;-118.018;2023-04-06T06:21:02;100364.97;;;12.57;51.44
50368;BME280;36281;34.132;-118.018;2023-04-06T06:23:32;100367.63;;;12.57;52.15
50368;BME280;36281;34.132;-118.018;2023-04-06T06:26:01;100368.06;;;12.54;52.73
50368;BME280;36281;34.132;-118.018;2023-04-06T06:28:30;100363.97;;;12.52;52.23
50368;BME280;36281;34.132;-118.018;2023-04-06T06:30:59;100355.00;;;12.46;52.72
50368;BME280;36281;34.132;-118.018;2023-04-06T06:33:31;100337.94;;;12.29;51.69
50368;BME280;36281;34.132;-118.018;2023-04-06T06:36:00;100371.38;;;12.43;51.62
50368;BME280;36281;34.132;-118.018;2023-04-06T06:38:29;100369.97;;;12.40;52.31
50368;BME280;36281;34.132;-118.018;2023-04-06T06:40:58;100369.78;;;12.35;52.42
50368;BME280;36281;34.132;-118.018;2023-04-06T06:43:27;100375.09;;;12.35;52.11
50368;BME280;36281;34.132;-118.018;2023-04-06T06:45:56;100373.28;;;12.29;52.99
50368;BME280;36281;34.132;-118.018;2023-04-06T06:48:27;100358.81;;;12.19;52.72
50368;BME280;36281;34.132;-118.018;2023-04-06T06:50:58;100376.75;;;12.23;52.97
50368;BME280;36281;34.132;-118.018;2023-04-06T06:53:27;100386.38;;;12.24;53.18
50368;BME280;36281;34.132;-118.018;2023-04-06T06:55:57;100383.31;;;12.21;53.46
50368;BME280;36281;34.132;-118.018;2023-04-06T06:58:26;100384.75;;;12.16;53.71
50368;BME280;36281;34.132;-118.018;2023-04-06T07:00:56;100383.16;;;12.09;53.91
50368;BME280;36281;34.132;-118.018;2023-04-06T07:03:26;100381.72;;;12.06;53.54
50368;BME280;36281;34.132;-118.018;2023-04-06T07:05:57;100378.47;;;12.04;53.51
50368;BME280;36281;34.132;-118.018;2023-04-06T07:08:26;100383.97;;;12.03;54.07
50368;BME280;36281;34.132;-118.018;2023-04-06T07:10:55;100380.13;;;11.99;53.77
50368;BME280;36281;34.132;-118.018;2023-04-06T07:13:24;100371.56;;;11.90;54.41
50368;BME280;36281;34.132;-118.018;2023-04-06T07:15:55;100379.94;;;11.87;54.93
50368;BME280;36281;34.132;-118.018;2023-04-06T07:18:24;100369.94;;;11.82;55.18
50368;BME280;36281;34.132;-118.018;2023-04-06T07:20:54;100381.75;;;11.80;54.18
50368;BME280;36281;34.132;-118.018;2023-04-06T07:23:25;100372.59;;;11.69;54.37
50368;BME280;36281;34.132;-118.018;2023-04-06T07:25:54;100379.94;;;11.74;54.24
50368;BME280;36281;34.132;-118.018;2023-04-06T07:28:23;100383.63;;;11.66;54.52
50368;BME280;36281;34.132;-118.018;2023-04-06T07:30:52;100386.25;;;11.66;54.89
50368;BME280;36281;34.132;-118.018;2023-04-06T07:33:22;100393.44;;;11.59;54.12
50368;BME280;36281;34.132;-118.018;2023-04-06T07:35:51;100396.47;;;11.56;54.59
50368;BME280;36281;34.132;-118.018;2023-04-06T07:38:21;100400.97;;;11.55;54.45
50368;BME280;36281;34.132;-118.018;2023-04-06T07:40:51;100397.09;;;11.51;54.13
50368;BME280;36281;34.132;-118.018;2023-04-06T07:43:20;100397.31;;;11.50;54.53
50368;BME280;36281;34.132;-118.018;2023-04-06T07:45:49;100390.38;;;11.49;54.26
50368;BME280;36281;34.132;-118.018;2023-04-06T07:48:19;100394.44;;;11.45;54.82
50368;BME280;36281;34.132;-118.018;2023-04-06T07:50:48;100406.25;;;11.42;54.94
50368;BME280;36281;34.132;-118.018;2023-04-06T07:53:17;100404.22;;;11.37;55.52
50368;BME280;36281;34.132;-118.018;2023-04-06T07:55:46;100406.66;;;11.32;55.43
50368;BME280;36281;34.132;-118.018;2023-04-06T07:58:17;100404.44;;;11.29;55.20
50368;BME280;36281;34.132;-118.018;2023-04-06T08:00:46;100397.28;;;11.23;55.12
50368;BME280;36281;34.132;-118.018;2023-04-06T08:03:15;100407.06;;;11.23;56.04
50368;BME280;36281;34.132;-118.018;2023-04-06T08:05:45;100405.44;;;11.15;56.13
50368;BME280;36281;34.132;-118.018;2023-04-06T08:08:14;100404.22;;;11.11;56.88
50368;BME280;36281;34.132;-118.018;2023-04-06T08:10:44;100404.59;;;11.08;57.08
50368;BME280;36281;34.132;-118.018;2023-04-06T08:13:13;100406.00;;;11.04;57.44
50368;BME280;36281;34.132;-118.018;2023-04-06T08:15:44;100401.94;;;11.01;57.92
50368;BME280;36281;34.132;-118.018;2023-04-06T08:18:13;100404.81;;;11.00;56.95
50368;BME280;36281;34.132;-118.018;2023-04-06T08:20:42;100405.81;;;10.99;56.72
50368;BME280;36281;34.132;-118.018;2023-04-06T08:23:11;100400.72;;;10.97;57.35
50368;BME280;36281;34.132;-118.018;2023-04-06T08:25:41;100394.19;;;10.93;57.63
50368;BME280;36281;34.132;-118.018;2023-04-06T08:28:10;100391.75;;;10.92;58.11
50368;BME280;36281;34.132;-118.018;2023-04-06T08:30:40;100391.75;;;10.92;58.02
50368;BME280;36281;34.132;-118.018;2023-04-06T08:33:11;100390.72;;;10.93;57.66
50368;BME280;36281;34.132;-118.018;2023-04-06T08:35:40;100331.09;;;10.49;57.45
50368;BME280;36281;34.132;-118.018;2023-04-06T08:38:09;100391.72;;;10.85;57.47
50368;BME280;36281;34.132;-118.018;2023-04-06T08:40:40;100389.47;;;10.82;57.24
50368;BME280;36281;34.132;-118.018;2023-04-06T08:43:13;100390.69;;;10.79;57.78
50368;BME280;36281;34.132;-118.018;2023-04-06T08:45:42;100392.13;;;10.75;57.90
50368;BME280;36281;34.132;-118.018;2023-04-06T08:48:14;100387.19;;;10.72;58.21
50368;BME280;36281;34.132;-118.018;2023-04-06T08:50:44;100388.00;;;10.66;58.74
50368;BME280;36281;34.132;-118.018;2023-04-06T08:53:14;100386.75;;;10.62;59.27
50368;BME280;36281;34.132;-118.018;2023-04-06T08:55:44;100375.56;;;10.60;58.87
50368;BME280;36281;34.132;-118.018;2023-04-06T08:58:14;100375.94;;;10.57;59.28
50368;BME280;36281;34.132;-118.018;2023-04-06T09:01:02;100372.69;;;10.55;59.29
50368;BME280;36281;34.132;-118.018;2023-04-06T09:03:37;100350.44;;;10.36;59.75
50368;BME280;36281;34.132;-118.018;2023-04-06T09:06:09;100365.13;;;10.45;59.66
50368;BME280;36281;34.132;-118.018;2023-04-06T09:08:40;100366.09;;;10.38;59.93
50368;BME280;36281;34.132;-118.018;2023-04-06T09:11:10;100359.78;;;10.32;60.09
50368;BME280;36281;34.132;-118.018;2023-04-06T09:13:47;100363.44;;;10.31;60.01
50368;BME280;36281;34.132;-118.018;2023-04-06T09:16:16;100357.28;;;10.24;60.10
50368;BME280;36281;34.132;-118.018;2023-04-06T09:18:48;100340.75;;;10.15;60.33
50368;BME280;36281;34.132;-118.018;2023-04-06T09:21:18;100350.91;;;10.18;60.59
50368;BME280;36281;34.132;-118.018;2023-04-06T09:23:59;100347.66;;;10.16;60.39
50368;BME280;36281;34.132;-118.018;2023-04-06T09:26:29;100345.22;;;10.15;60.12
50368;BME280;36281;34.132;-118.018;2023-04-06T09:28:58;100335.00;;;10.05;60.23
50368;BME280;36281;34.132;-118.018;2023-04-06T09:31:30;100324.78;;;10.02;60.07
50368;BME280;36281;34.132;-118.018;2023-04-06T09:34:04;100338.25;;;10.07;60.60
50368;BME280;36281;34.132;-118.018;2023-04-06T09:36:35;100338.25;;;10.07;61.00
50368;BME280;36281;34.132;-118.018;2023-04-06T09:39:09;100339.03;;;10.01;61.25
50368;BME280;36281;34.132;-118.018;2023-04-06T09:41:38;100329.03;;;9.96;61.61
50368;BME280;36281;34.132;-118.018;2023-04-06T09:44:08;100333.53;;;9.96;62.00
50368;BME280;36281;34.132;-118.018;2023-04-06T09:46:39;100323.09;;;9.88;61.89
50368;BME280;36281;34.132;-118.018;2023-04-06T09:49:28;100301.44;;;9.71;61.71
50368;BME280;36281;34.132;-118.018;2023-04-06T09:52:00;100295.72;;;9.67;62.18
50368;BME280;36281;34.132;-118.018;2023-04-06T09:54:31;100325.28;;;9.77;62.63
50368;BME280;36281;34.132;-118.018;2023-04-06T09:57:07;100318.38;;;9.76;62.61
50368;BME280;36281;34.132;-118.018;2023-04-06T09:59:44;100282.81;;;9.51;62.84
50368;BME280;36281;34.132;-118.018;2023-04-06T10:02:20;100322.38;;;9.66;62.85
50368;BME280;36281;34.132;-118.018;2023-04-06T10:04:59;100327.84;;;9.64;63.07
50368;BME280;36281;34.132;-118.018;2023-04-06T10:07:31;100322.50;;;9.57;63.56
50368;BME280;36281;34.132;-118.018;2023-04-06T10:10:06;100322.47;;;9.51;63.61
50368;BME280;36281;34.132;-118.018;2023-04-06T10:12:36;100324.47;;;9.49;63.28
50368;BME280;36281;34.132;-118.018;2023-04-06T10:15:07;100328.91;;;9.42;63.53
50368;BME280;36281;34.132;-118.018;2023-04-06T10:17:36;100322.38;;;9.38;63.48
50368;BME280;36281;34.132;-118.018;2023-04-06T10:20:10;100315.47;;;9.37;64.09
50368;BME280;36281;34.132;-118.018;2023-04-06T10:22:44;100315.66;;;9.35;64.37
50368;BME280;36281;34.132;-118.018;2023-04-06T10:25:27;100311.94;;;9.29;64.59
50368;BME280;36281;34.132;-118.018;2023-04-06T10:28:00;100313.34;;;9.25;64.45
50368;BME280;36281;34.132;-118.018;2023-04-06T10:30:30;100311.91;;;9.23;64.15
50368;BME280;36281;34.132;-118.018;2023-04-06T10:32:59;100306.75;;;9.15;63.95
50368;BME280;36281;34.132;-118.018;2023-04-06T10:35:38;100305.75;;;9.16;63.94
50368;BME280;36281;34.132;-118.018;2023-04-06T10:38:08;100311.41;;;9.13;64.12
50368;BME280;36281;34.132;-118.018;2023-04-06T10:40:38;100305.31;;;9.12;62.92
50368;BME280;36281;34.132;-118.018;2023-04-06T10:43:08;100309.59;;;9.13;62.83
50368;BME280;36281;34.132;-118.018;2023-04-06T10:45:38;100306.50;;;9.10;62.96
50368;BME280;36281;34.132;-118.018;2023-04-06T10:48:14;100308.34;;;9.09;62.78
50368;BME280;36281;34.132;-118.018;2023-04-06T10:50:47;100303.44;;;9.06;62.94
50368;BME280;36281;34.132;-118.018;2023-04-06T10:53:21;100308.91;;;9.04;62.99
50368;BME280;36281;34.132;-118.018;2023-04-06T10:55:51;100309.31;;;9.01;63.64
50368;BME280;36281;34.132;-118.018;2023-04-06T10:58:24;100305.84;;;9.01;63.26
50368;BME280;36281;34.132;-118.018;2023-04-06T11:00:54;100301.38;;;9.01;63.25
50368;BME280;36281;34.132;-118.018;2023-04-06T11:03:24;100300.13;;;8.97;63.22
50368;BME280;36281;34.132;-118.018;2023-04-06T11:05:55;100290.69;;;8.88;62.65
50368;BME280;36281;34.132;-118.018;2023-04-06T11:08:27;100299.88;;;8.92;62.75
50368;BME280;36281;34.132;-118.018;2023-04-06T11:11:06;100301.06;;;8.90;62.61
50368;BME280;36281;34.132;-118.018;2023-04-06T11:13:40;100295.78;;;8.90;62.49
50368;BME280;36281;34.132;-118.018;2023-04-06T11:16:13;100279.25;;;8.81;62.71
50368;BME280;36281;34.132;-118.018;2023-04-06T11:18:50;100294.72;;;8.84;62.56
50368;BME280;36281;34.132;-118.018;2023-04-06T11:21:31;100290.25;;;8.85;62.57
50368;BME280;36281;34.132;-118.018;2023-04-06T11:24:10;100280.38;;;8.72;62.81
50368;BME280;36281;34.132;-118.018;2023-04-06T11:26:41;100303.19;;;8.79;63.14
50368;BME280;36281;34.132;-118.018;2023-04-06T11:29:11;100289.75;;;8.74;63.00
50368;BME280;36281;34.132;-118.018;2023-04-06T11:31:41;100298.69;;;8.73;63.21
50368;BME280;36281;34.132;-118.018;2023-04-06T11:34:16;100294.41;;;8.72;63.68
50368;BME280;36281;34.132;-118.018;2023-04-06T11:36:48;100288.50;;;8.70;64.04
50368;BME280;36281;34.132;-118.018;2023-04-06T11:39:21;100292.13;;;8.69;63.88
50368;BME280;36281;34.132;-118.018;2023-04-06T11:41:50;100290.91;;;8.65;63.87
50368;BME280;36281;34.132;-118.018;2023-04-06T11:44:30;100293.91;;;8.62;64.08
50368;BME280;36281;34.132;-118.018;2023-04-06T11:47:01;100295.91;;;8.60;64.44
50368;BME280;36281;34.132;-118.018;2023-04-06T11:49:31;100288.94;;;8.52;64.78
50368;BME280;36281;34.132;-118.018;2023-04-06T11:52:02;100303.19;;;8.58;64.51
50368;BME280;36281;34.132;-118.018;2023-04-06T11:54:32;100298.47;;;8.53;64.25
50368;BME280;36281;34.132;-118.018;2023-04-06T11:57:03;100306.59;;;8.52;63.90
50368;BME280;36281;34.132;-118.018;2023-04-06T11:59:33;100294.97;;;8.46;63.99
50368;BME280;36281;34.132;-118.018;2023-04-06T12:02:03;100307.72;;;8.43;64.13
50368;BME280;36281;34.132;-118.018;2023-04-06T12:04:33;100308.06;;;8.40;63.96
50368;BME280;36281;34.132;-118.018;2023-04-06T12:07:04;100293.34;;;8.31;63.67
50368;BME280;36281;34.132;-118.018;2023-04-06T12:09:33;100299.44;;;8.31;63.74
50368;BME280;36281;34.132;-118.018;2023-04-06T12:12:04;100298.53;;;8.39;64.01
50368;BME280;36281;34.132;-118.018;2023-04-06T12:14:33;100236.66;;;7.90;64.17
50368;BME280;36281;34.132;-118.018;2023-04-06T12:17:02;100301.53;;;8.36;63.81
50368;BME280;36281;34.132;-118.018;2023-04-06T12:19:32;100307.38;;;8.31;63.89
50368;BME280;36281;34.132;-118.018;2023-04-06T12:22:01;100299.34;;;8.24;63.77
50368;BME280;36281;34.132;-118.018;2023-04-06T12:24:32;100299.28;;;8.18;65.45
50368;BME280;36281;34.132;-118.018;2023-04-06T12:27:01;100296.44;;;8.19;66.08
50368;BME280;36281;34.132;-118.018;2023-04-06T12:29:37;100300.47;;;8.15;66.07
50368;BME280;36281;34.132;-118.018;2023-04-06T12:32:06;100303.69;;;8.11;65.99
50368;BME280;36281;34.132;-118.018;2023-04-06T12:34:35;100308.09;;;8.10;65.77
50368;BME280;36281;34.132;-118.018;2023-04-06T12:37:04;100315.41;;;8.08;66.40
50368;BME280;36281;34.132;-118.018;2023-04-06T12:39:35;100306.47;;;8.09;66.54